createdAt,value
2018-05-03T00:01:34.824Z,13.60
2018-05-03T00:04:02.324Z,13.60
2018-05-03T00:06:29.884Z,13.60
2018-05-03T00:08:57.373Z,13.60
2018-05-03T00:11:25.601Z,13.80
2018-05-03T00:13:53.258Z,13.80
2018-05-03T00:16:20.747Z,13.80
2018-05-03T00:18:48.208Z,13.80
2018-05-03T00:21:16.481Z,13.90
2018-05-03T00:23:44.731Z,13.90
2018-05-03T00:26:12.208Z,13.90
2018-05-03T00:28:39.704Z,13.80
2018-05-03T00:31:07.332Z,13.70
2018-05-03T00:33:35.564Z,13.50
2018-05-03T00:36:03.056Z,13.50
2018-05-03T00:38:30.547Z,13.50
2018-05-03T00:40:58.030Z,13.50
2018-05-03T00:43:25.508Z,13.50
2018-05-03T00:45:53.001Z,13.40
2018-05-03T00:48:21.294Z,13.40
2018-05-03T00:50:48.794Z,13.40
2018-05-03T00:53:16.276Z,13.40
2018-05-03T00:55:43.736Z,13.30
2018-05-03T00:58:11.212Z,13.30
2018-05-03T01:00:39.462Z,13.30
2018-05-03T01:03:07.703Z,13.30
2018-05-03T01:05:35.175Z,13.20
2018-05-03T01:08:02.664Z,13.20
2018-05-03T01:10:30.125Z,13.20
2018-05-03T01:12:58.375Z,13.20
2018-05-03T01:15:25.861Z,13.10
2018-05-03T01:17:54.105Z,13.20
2018-05-03T01:20:21.589Z,13.20
2018-05-03T01:22:49.829Z,13.20
2018-05-03T01:25:17.308Z,13.20
2018-05-03T01:27:45.690Z,13.10
2018-05-03T01:30:13.935Z,13.10
2018-05-03T01:32:41.433Z,13.10
2018-05-03T01:35:31.491Z,13.10
2018-05-03T01:37:59.716Z,13.10
2018-05-03T01:40:27.220Z,13.10
2018-05-03T01:42:54.673Z,13.10
2018-05-03T01:45:22.144Z,13.20
2018-05-03T01:47:49.633Z,13.10
2018-05-03T01:50:17.919Z,13.10
2018-05-03T01:52:46.164Z,13.10
2018-05-03T01:55:13.631Z,13.10
2018-05-03T01:57:41.898Z,13.00
2018-05-03T02:00:10.878Z,13.00
2018-05-03T02:02:38.361Z,13.00
2018-05-03T02:05:06.600Z,13.00
2018-05-03T02:07:34.081Z,12.90
2018-05-03T02:10:02.312Z,12.90
2018-05-03T02:12:29.788Z,12.90
2018-05-03T02:14:57.322Z,12.90
2018-05-03T02:17:24.959Z,12.90
2018-05-03T02:19:53.188Z,12.90
2018-05-03T02:22:20.675Z,12.90
2018-05-03T02:24:48.911Z,13.00
2018-05-03T02:27:16.409Z,12.90
2018-05-03T02:29:44.651Z,12.90
2018-05-03T02:32:12.126Z,12.80
2018-05-03T02:34:40.389Z,12.80
2018-05-03T02:37:07.859Z,12.80
2018-05-03T02:39:36.135Z,12.80
2018-05-03T02:42:03.611Z,12.80
2018-05-03T02:44:31.851Z,12.80
2018-05-03T02:46:59.546Z,12.80
2018-05-03T02:49:27.781Z,12.70
2018-05-03T02:51:55.320Z,12.70
2018-05-03T02:54:22.738Z,12.70
2018-05-03T02:56:50.995Z,12.60
2018-05-03T02:59:30.396Z,12.60
2018-05-03T03:02:03.516Z,12.60
2018-05-03T03:04:49.374Z,12.60
2018-05-03T03:10:47.425Z,12.50
2018-05-03T03:13:47.292Z,12.40
2018-05-03T03:16:32.430Z,12.40
2018-05-03T03:19:17.566Z,12.40
2018-05-03T03:22:02.875Z,12.40
2018-05-03T03:24:42.336Z,12.30
2018-05-03T03:27:36.379Z,12.20
2018-05-03T03:30:15.684Z,12.20
2018-05-03T03:32:55.209Z,12.20
2018-05-03T03:38:43.463Z,12.10
2018-05-03T03:41:22.993Z,12.10
2018-05-03T03:44:02.756Z,12.00
2018-05-03T03:46:30.232Z,12.00
2018-05-03T03:48:57.741Z,11.90
2018-05-03T03:51:25.230Z,11.90
2018-05-03T03:53:52.687Z,11.90
2018-05-03T03:56:20.185Z,11.80
2018-05-03T03:58:48.420Z,11.60
2018-05-03T04:01:15.904Z,11.60
2018-05-03T04:03:44.888Z,11.60
2018-05-03T04:06:12.399Z,11.60
2018-05-03T04:08:39.904Z,11.60
2018-05-03T04:11:08.891Z,11.60
2018-05-03T04:13:36.376Z,11.60
2018-05-03T04:16:05.358Z,11.50
2018-05-03T04:18:45.674Z,11.50
2018-05-03T04:21:38.996Z,11.50
2018-05-03T04:24:18.925Z,11.40
2018-05-03T04:26:46.384Z,11.30
2018-05-03T04:29:14.641Z,11.30
2018-05-03T04:31:42.114Z,11.20
2018-05-03T04:34:10.382Z,11.30
2018-05-03T04:36:37.839Z,11.30
2018-05-03T04:39:05.307Z,11.30
2018-05-03T04:41:33.543Z,11.20
2018-05-03T04:44:01.247Z,11.10
2018-05-03T04:46:29.479Z,11.20
2018-05-03T04:48:57.053Z,11.20
2018-05-03T04:51:25.297Z,11.20
2018-05-03T04:53:52.776Z,11.20
2018-05-03T04:56:20.264Z,11.20
2018-05-03T04:58:48.503Z,11.10
2018-05-03T05:01:15.979Z,11.10
2018-05-03T05:03:43.476Z,11.20
2018-05-03T05:06:11.722Z,11.20
2018-05-03T05:08:39.205Z,11.20
2018-05-03T05:11:07.456Z,11.10
2018-05-03T05:13:34.926Z,11.10
2018-05-03T05:16:02.486Z,11.20
2018-05-03T05:18:30.729Z,11.30
2018-05-03T05:20:58.199Z,11.30
2018-05-03T05:23:25.682Z,11.40
2018-05-03T05:25:54.051Z,11.50
2018-05-03T05:28:22.344Z,11.50
2018-05-03T05:30:50.714Z,11.50
2018-05-03T05:33:18.947Z,11.40
2018-05-03T05:35:46.483Z,11.40
2018-05-03T05:38:13.962Z,11.40
2018-05-03T05:40:41.422Z,11.40
2018-05-03T05:43:09.055Z,11.40
2018-05-03T05:45:36.511Z,11.40
2018-05-03T05:48:04.016Z,11.50
2018-05-03T05:50:32.252Z,11.50
2018-05-03T05:52:59.773Z,11.50
2018-05-03T05:55:28.018Z,11.60
2018-05-03T05:57:56.280Z,11.60
2018-05-03T06:00:23.748Z,11.50
2018-05-03T06:02:51.288Z,11.70
2018-05-03T06:05:18.760Z,11.70
2018-05-03T06:07:46.237Z,11.80
2018-05-03T06:10:13.737Z,11.90
2018-05-03T06:12:41.232Z,12.00
2018-05-03T06:15:08.762Z,12.00
2018-05-03T06:17:36.244Z,12.10
2018-05-03T06:20:03.800Z,12.10
2018-05-03T06:22:31.271Z,12.10
2018-05-03T06:24:59.555Z,12.30
2018-05-03T06:27:27.807Z,12.40
2018-05-03T06:29:55.324Z,12.30
2018-05-03T06:32:22.803Z,12.30
2018-05-03T06:34:50.288Z,12.30
2018-05-03T06:37:17.764Z,12.40
2018-05-03T06:39:46.020Z,12.60
2018-05-03T06:42:13.535Z,12.60
2018-05-03T06:44:41.004Z,12.80
2018-05-03T06:47:08.916Z,12.90
2018-05-03T06:49:36.383Z,12.90
2018-05-03T06:52:04.857Z,13.00
2018-05-03T06:54:32.315Z,13.00
2018-05-03T06:56:59.824Z,13.00
2018-05-03T06:59:27.344Z,13.00
2018-05-03T07:01:54.849Z,13.00
2018-05-03T07:04:22.482Z,12.90
2018-05-03T07:06:49.805Z,13.00
2018-05-03T07:09:18.086Z,13.20
2018-05-03T07:11:45.559Z,13.20
2018-05-03T07:14:13.853Z,13.50
2018-05-03T07:16:41.333Z,13.50
2018-05-03T07:19:09.198Z,13.60
2018-05-03T07:21:36.696Z,13.70
2018-05-03T07:24:04.952Z,13.70
2018-05-03T07:26:32.421Z,13.70
2018-05-03T07:29:00.708Z,13.60
2018-05-03T07:31:28.165Z,13.60
2018-05-03T07:33:56.431Z,13.60
2018-05-03T07:36:23.907Z,13.60
2018-05-03T07:38:52.177Z,13.80
2018-05-03T07:41:20.426Z,13.90
2018-05-03T07:43:47.909Z,13.90
2018-05-03T07:46:16.151Z,13.80
2018-05-03T07:48:43.662Z,13.80
2018-05-03T07:51:11.168Z,13.90
2018-05-03T07:53:38.663Z,13.90
2018-05-03T07:56:06.927Z,13.90
2018-05-03T07:58:34.388Z,13.90
2018-05-03T08:01:02.872Z,14.00
2018-05-03T08:03:31.663Z,14.00
2018-05-03T08:05:59.906Z,14.00
2018-05-03T08:08:27.404Z,14.00
2018-05-03T08:10:55.723Z,14.10
2018-05-03T08:13:23.946Z,14.10
2018-05-03T08:15:52.209Z,14.20
2018-05-03T08:18:19.698Z,14.20
2018-05-03T08:20:47.151Z,14.30
2018-05-03T08:23:14.685Z,14.20
2018-05-03T08:25:42.151Z,14.30
2018-05-03T08:28:10.728Z,14.40
2018-05-03T08:30:38.203Z,14.40
2018-05-03T08:33:06.436Z,14.50
2018-05-03T08:35:33.931Z,14.50
2018-05-03T08:38:02.161Z,14.80
2018-05-03T08:40:29.666Z,14.80
2018-05-03T08:42:57.896Z,14.80
2018-05-03T08:45:25.368Z,14.80
2018-05-03T08:47:52.916Z,14.80
2018-05-03T08:50:20.400Z,15.10
2018-05-03T08:52:47.921Z,15.20
2018-05-03T08:55:15.395Z,15.20
2018-05-03T08:57:43.691Z,14.90
2018-05-03T09:00:12.123Z,15.00
2018-05-03T09:02:39.773Z,15.00
2018-05-03T09:05:07.239Z,15.10
2018-05-03T09:07:34.749Z,15.20
2018-05-03T09:10:03.730Z,15.20
2018-05-03T09:12:31.342Z,15.20
2018-05-03T09:14:58.799Z,15.30
2018-05-03T09:17:26.307Z,15.50
2018-05-03T09:19:53.772Z,15.60
2018-05-03T09:22:22.110Z,15.80
2018-05-03T09:24:49.586Z,15.80
2018-05-03T09:27:17.084Z,15.90
2018-05-03T09:29:44.579Z,16.10
2018-05-03T09:32:12.423Z,16.20
2018-05-03T09:34:39.928Z,16.30
2018-05-03T09:37:07.492Z,16.60
2018-05-03T09:39:36.477Z,16.60
2018-05-03T09:42:03.989Z,16.60
2018-05-03T09:44:31.476Z,16.40
2018-05-03T09:46:58.951Z,16.40
2018-05-03T09:49:26.431Z,16.60
2018-05-03T09:51:54.679Z,16.80
2018-05-03T09:54:22.144Z,16.80
2018-05-03T09:56:49.649Z,16.90
2018-05-03T09:59:17.157Z,16.90
2018-05-03T10:01:44.721Z,16.90
2018-05-03T10:04:12.200Z,16.80
2018-05-03T10:06:40.449Z,16.80
2018-05-03T10:09:08.175Z,16.90
2018-05-03T10:11:35.683Z,16.70
2018-05-03T10:14:03.967Z,16.70
2018-05-03T10:16:32.195Z,16.60
2018-05-03T10:18:59.699Z,16.60
2018-05-03T10:21:27.933Z,16.60
2018-05-03T10:23:56.950Z,16.80
2018-05-03T10:26:25.206Z,17.00
2018-05-03T10:28:52.696Z,17.00
2018-05-03T10:31:20.935Z,17.00
2018-05-03T10:33:48.410Z,17.00
2018-05-03T10:36:16.443Z,17.00
2018-05-03T10:38:43.861Z,16.90
2018-05-03T10:41:12.107Z,16.90
2018-05-03T10:43:39.599Z,16.80
2018-05-03T10:46:07.844Z,17.00
2018-05-03T10:48:35.427Z,17.00
2018-05-03T10:51:02.852Z,17.20
2018-05-03T10:53:30.481Z,17.40
2018-05-03T10:55:58.116Z,17.50
2018-05-03T10:58:26.371Z,18.00
2018-05-03T11:00:53.841Z,17.90
2018-05-03T11:03:22.146Z,18.00
2018-05-03T11:05:49.665Z,18.00
2018-05-03T11:08:18.250Z,18.10
2018-05-03T11:10:45.770Z,18.00
2018-05-03T11:13:13.236Z,18.10
2018-05-03T11:15:40.735Z,18.00
2018-05-03T11:18:08.989Z,18.10
2018-05-03T11:20:36.523Z,18.10
2018-05-03T11:23:03.987Z,18.00
2018-05-03T11:25:31.479Z,18.10
2018-05-03T11:27:59.713Z,18.20
2018-05-03T11:30:27.353Z,18.20
2018-05-03T11:32:54.830Z,17.90
2018-05-03T11:35:22.375Z,18.00
2018-05-03T11:37:49.835Z,18.20
2018-05-03T11:40:17.592Z,18.30
2018-05-03T11:42:45.075Z,18.20
2018-05-03T11:45:12.544Z,18.20
2018-05-03T11:47:40.011Z,18.10
2018-05-03T11:50:08.296Z,18.00
2018-05-03T11:52:36.525Z,18.40
2018-05-03T11:55:03.983Z,18.40
2018-05-03T11:57:31.523Z,18.60
2018-05-03T11:59:59.012Z,18.80
2018-05-03T12:02:26.655Z,19.30
2018-05-03T12:04:59.175Z,19.60
2018-05-03T12:07:27.413Z,19.30
2018-05-03T12:09:54.898Z,19.20
2018-05-03T12:12:22.368Z,19.50
2018-05-03T12:14:50.612Z,19.20
2018-05-03T12:17:18.704Z,19.20
2018-05-03T12:19:46.167Z,19.50
2018-05-03T12:22:14.428Z,19.90
2018-05-03T12:24:42.700Z,20.20
2018-05-03T12:27:10.163Z,20.10
2018-05-03T12:29:37.689Z,20.00
2018-05-03T12:32:05.169Z,20.00
2018-05-03T12:34:32.651Z,20.30
2018-05-03T12:37:00.920Z,20.00
2018-05-03T12:39:29.172Z,19.70
2018-05-03T12:41:56.653Z,19.70
2018-05-03T12:44:24.167Z,19.50
2018-05-03T12:46:51.769Z,19.60
2018-05-03T12:49:19.239Z,20.00
2018-05-03T12:51:47.504Z,19.30
2018-05-03T12:54:14.945Z,19.30
2018-05-03T12:56:42.429Z,19.60
2018-05-03T12:59:10.691Z,20.10
2018-05-03T13:01:38.158Z,20.10
2018-05-03T13:04:06.423Z,20.30
2018-05-03T13:06:33.897Z,20.20
2018-05-03T13:09:02.198Z,20.70
2018-05-03T13:11:29.666Z,20.60
2018-05-03T13:13:57.154Z,20.60
2018-05-03T13:16:24.648Z,19.90
2018-05-03T13:18:52.892Z,18.40
2018-05-03T13:21:20.418Z,18.30
2018-05-03T13:23:48.603Z,18.00
2018-05-03T13:26:16.084Z,18.00
2018-05-03T13:28:43.574Z,18.10
2018-05-03T13:31:11.891Z,18.10
2018-05-03T13:33:39.579Z,18.10
2018-05-03T13:36:07.056Z,17.70
2018-05-03T13:38:35.288Z,18.10
2018-05-03T13:41:02.818Z,18.10
2018-05-03T13:43:30.297Z,18.60
2018-05-03T13:45:57.773Z,19.00
2018-05-03T13:48:25.588Z,19.10
2018-05-03T13:50:53.086Z,18.70
2018-05-03T13:53:20.604Z,18.60
2018-05-03T13:55:48.036Z,18.50
2018-05-03T13:58:15.511Z,18.60
2018-05-03T14:00:43.770Z,18.70
2018-05-03T14:03:11.245Z,18.70
2018-05-03T14:05:38.767Z,18.90
2018-05-03T14:08:07.006Z,19.10
2018-05-03T14:10:34.506Z,19.10
2018-05-03T14:13:02.051Z,18.90
2018-05-03T14:15:29.486Z,18.60
2018-05-03T14:17:56.970Z,18.30
2018-05-03T14:20:24.842Z,18.30
2018-05-03T14:22:52.338Z,18.20
2018-05-03T14:25:20.590Z,18.30
2018-05-03T14:27:48.171Z,18.20
2018-05-03T14:30:16.493Z,18.40
2018-05-03T14:32:44.019Z,18.40
2018-05-03T14:35:11.528Z,18.30
2018-05-03T14:37:39.019Z,18.20
2018-05-03T14:40:07.266Z,18.50
2018-05-03T14:42:34.720Z,18.50
2018-05-03T14:45:02.201Z,18.30
2018-05-03T14:47:30.467Z,18.20
2018-05-03T14:49:57.934Z,18.20
2018-05-03T14:52:26.446Z,18.20
2018-05-03T14:54:53.927Z,18.20
2018-05-03T14:57:21.414Z,18.40
2018-05-03T14:59:48.883Z,18.60
2018-05-03T15:02:17.300Z,18.70
2018-05-03T15:04:45.580Z,18.70
2018-05-03T15:07:13.257Z,18.70
2018-05-03T15:09:40.724Z,18.50
2018-05-03T15:12:08.210Z,18.40
2018-05-03T15:14:35.699Z,18.30
2018-05-03T15:17:03.195Z,18.20
2018-05-03T15:19:30.684Z,18.20
2018-05-03T15:21:58.964Z,18.00
2018-05-03T15:24:27.649Z,18.00
2018-05-03T15:26:55.941Z,18.00
2018-05-03T15:29:24.196Z,18.00
2018-05-03T15:31:52.524Z,18.00
2018-05-03T15:34:21.639Z,18.00
2018-05-03T15:36:49.110Z,18.00
2018-05-03T15:39:16.672Z,18.00
2018-05-03T15:41:44.256Z,17.90
2018-05-03T15:44:12.500Z,17.80
2018-05-03T15:46:39.973Z,17.80
2018-05-03T15:49:07.635Z,17.80
2018-05-03T15:51:35.108Z,17.80
2018-05-03T15:54:02.667Z,17.80
2018-05-03T15:56:30.945Z,17.70
2018-05-03T15:58:59.191Z,17.70
2018-05-03T16:01:28.225Z,17.70
2018-05-03T16:03:56.424Z,17.90
2018-05-03T16:06:23.889Z,17.90
2018-05-03T16:08:51.397Z,17.90
2018-05-03T16:11:19.618Z,17.80
2018-05-03T16:13:47.112Z,17.80
2018-05-03T16:16:14.653Z,17.70
2018-05-03T16:18:42.143Z,17.80
2018-05-03T16:21:10.372Z,17.80
2018-05-03T16:23:37.959Z,17.80
2018-05-03T16:26:05.454Z,17.80
2018-05-03T16:28:33.183Z,17.80
2018-05-03T16:31:00.660Z,17.70
2018-05-03T16:33:28.915Z,17.50
2018-05-03T16:35:56.433Z,17.50
2018-05-03T16:38:23.933Z,17.40
2018-05-03T16:40:51.440Z,17.30
2018-05-03T16:43:18.944Z,17.40
2018-05-03T16:45:46.449Z,17.50
2018-05-03T16:48:13.932Z,17.50
2018-05-03T16:50:41.423Z,17.50
2018-05-03T16:53:08.908Z,17.50
2018-05-03T16:55:36.402Z,17.60
2018-05-03T16:58:03.895Z,17.60
2018-05-03T17:00:31.655Z,17.60
2018-05-03T17:02:59.265Z,17.60
2018-05-03T17:05:26.765Z,17.50
2018-05-03T17:07:54.239Z,17.50
2018-05-03T17:10:22.712Z,17.50
2018-05-03T17:15:24.119Z,17.40
2018-05-03T17:17:51.633Z,17.40
2018-05-03T17:20:19.111Z,17.40
2018-05-03T17:22:47.348Z,17.50
2018-05-03T17:25:14.831Z,17.40
2018-05-03T17:27:42.363Z,17.40
2018-05-03T17:30:09.868Z,17.40
2018-05-03T17:32:37.372Z,17.40
2018-05-03T17:35:04.865Z,17.30
2018-05-03T17:37:33.234Z,17.20
2018-05-03T17:40:00.875Z,17.20
2018-05-03T17:42:28.409Z,17.10
2018-05-03T17:44:55.868Z,17.00
2018-05-03T17:47:23.378Z,16.90
2018-05-03T17:49:51.625Z,16.60
2018-05-03T17:52:19.097Z,16.60
2018-05-03T17:54:46.593Z,16.60
2018-05-03T17:57:14.838Z,16.60
2018-05-03T17:59:43.090Z,16.40
2018-05-03T18:02:10.591Z,16.40
2018-05-03T18:04:38.858Z,16.40
2018-05-03T18:07:07.075Z,16.30
2018-05-03T18:09:34.551Z,16.30
2018-05-03T18:12:02.064Z,16.30
2018-05-03T18:14:30.472Z,16.20
2018-05-03T18:16:57.943Z,16.10
2018-05-03T18:19:25.412Z,16.20
2018-05-03T18:21:52.894Z,16.10
2018-05-03T18:24:20.428Z,16.10
2018-05-03T18:26:47.922Z,16.10
2018-05-03T18:29:15.559Z,16.00
2018-05-03T18:31:43.028Z,15.90
2018-05-03T18:34:10.631Z,15.90
2018-05-03T18:36:38.377Z,15.90
2018-05-03T18:39:05.843Z,15.90
2018-05-03T18:41:33.379Z,15.80
2018-05-03T18:44:00.913Z,15.80
2018-05-03T18:46:28.433Z,15.80
2018-05-03T18:48:55.831Z,15.80
2018-05-03T18:51:24.119Z,15.70
2018-05-03T18:53:52.363Z,15.70
2018-05-03T18:56:19.887Z,15.70
2018-05-03T18:58:47.352Z,15.60
2018-05-03T19:01:14.904Z,15.60
2018-05-03T19:03:43.083Z,15.50
2018-05-03T19:06:10.588Z,15.50
2018-05-03T19:08:38.078Z,15.50
2018-05-03T19:11:06.381Z,15.40
2018-05-03T19:13:33.847Z,15.40
2018-05-03T19:16:01.335Z,15.40
2018-05-03T19:18:28.897Z,15.30
2018-05-03T19:20:56.362Z,15.20
2018-05-03T19:23:24.635Z,15.20
2018-05-03T19:25:52.883Z,15.20
2018-05-03T19:28:20.360Z,15.20
2018-05-03T19:30:47.833Z,15.10
2018-05-03T19:33:16.110Z,15.10
2018-05-03T19:35:44.355Z,15.20
2018-05-03T19:38:12.039Z,15.10
2018-05-03T19:40:40.312Z,15.10
2018-05-03T19:43:08.602Z,15.10
2018-05-03T19:45:36.068Z,15.10
2018-05-03T19:48:04.380Z,14.90
2018-05-03T19:50:31.875Z,14.90
2018-05-03T19:52:59.343Z,14.90
2018-05-03T19:55:27.645Z,14.80
2018-05-03T19:57:55.137Z,14.70
2018-05-03T20:00:22.648Z,14.80
2018-05-03T20:02:50.145Z,14.70
2018-05-03T20:05:17.649Z,14.70
2018-05-03T20:07:45.889Z,14.50
2018-05-03T20:10:13.410Z,14.50
2018-05-03T20:12:41.139Z,14.50
2018-05-03T20:15:09.393Z,14.50
2018-05-03T20:17:36.891Z,14.50
2018-05-03T20:20:04.396Z,14.50
2018-05-03T20:22:31.882Z,14.50
2018-05-03T20:25:00.885Z,14.30
2018-05-03T20:27:29.257Z,14.30
2018-05-03T20:29:56.740Z,14.20
2018-05-03T20:32:24.980Z,14.20
2018-05-03T20:34:53.973Z,14.20
2018-05-03T20:37:21.457Z,14.20
2018-05-03T20:39:49.708Z,14.00
2018-05-03T20:42:17.196Z,14.00
2018-05-03T20:44:44.676Z,14.00
2018-05-03T20:47:12.183Z,14.00
2018-05-03T20:49:39.634Z,14.00
2018-05-03T20:52:07.553Z,14.00
2018-05-03T20:54:35.650Z,14.00
2018-05-03T20:57:03.168Z,14.00
2018-05-03T20:59:30.681Z,13.90
2018-05-03T21:01:58.149Z,13.90
2018-05-03T21:04:25.653Z,13.80
2018-05-03T21:06:53.128Z,13.80
2018-05-03T21:09:20.612Z,13.80
2018-05-03T21:11:48.652Z,13.80
2018-05-03T21:14:16.138Z,13.80
2018-05-03T21:16:43.624Z,13.70
2018-05-03T21:19:11.886Z,13.70
2018-05-03T21:21:39.415Z,13.70
2018-05-03T21:24:06.924Z,13.80
2018-05-03T21:26:35.153Z,13.80
2018-05-03T21:29:02.730Z,13.70
2018-05-03T21:31:30.193Z,13.80
2018-05-03T21:33:58.451Z,13.40
2018-05-03T21:36:25.921Z,13.40
2018-05-03T21:38:54.169Z,13.50
2018-05-03T21:41:21.627Z,13.50
2018-05-03T21:43:49.551Z,13.70
2018-05-03T21:46:17.786Z,13.70
2018-05-03T21:48:45.253Z,13.70
2018-05-03T21:51:14.236Z,13.50
2018-05-03T21:53:41.730Z,13.50
2018-05-03T21:56:09.981Z,13.40
2018-05-03T21:58:37.449Z,13.40
2018-05-03T22:01:05.683Z,13.20
2018-05-03T22:03:33.176Z,13.20
2018-05-03T22:06:00.648Z,13.10
2018-05-03T22:08:28.931Z,12.90
2018-05-03T22:10:57.295Z,12.80
2018-05-03T22:13:25.538Z,12.80
2018-05-03T22:15:53.063Z,12.70
2018-05-03T22:18:20.533Z,12.70
2018-05-03T22:20:48.060Z,12.80
2018-05-03T22:23:16.283Z,12.70
2018-05-03T22:25:43.761Z,12.70
2018-05-03T22:28:11.248Z,12.70
2018-05-03T22:30:38.723Z,12.70
2018-05-03T22:33:06.205Z,12.60
2018-05-03T22:35:33.675Z,12.60
2018-05-03T22:38:01.162Z,12.60
2018-05-03T22:40:29.438Z,12.60
2018-05-03T22:42:56.888Z,12.60
2018-05-03T22:45:25.148Z,12.40
2018-05-03T22:47:52.653Z,12.40
2018-05-03T22:50:20.121Z,12.40
2018-05-03T22:52:48.360Z,12.30
2018-05-03T22:55:16.595Z,12.30
2018-05-03T22:57:44.071Z,12.20
2018-05-03T23:00:13.030Z,12.20
2018-05-03T23:02:40.531Z,12.20
2018-05-03T23:05:08.772Z,12.30
2018-05-03T23:07:36.296Z,12.30
2018-05-03T23:10:03.772Z,12.30
2018-05-03T23:12:31.272Z,12.30
2018-05-03T23:14:58.748Z,12.30
2018-05-03T23:17:26.992Z,12.10
2018-05-03T23:19:54.475Z,12.10
2018-05-03T23:22:22.700Z,12.00
2018-05-03T23:24:50.163Z,12.00
2018-05-03T23:27:17.651Z,12.10
2018-05-03T23:29:46.640Z,12.10
2018-05-03T23:32:14.211Z,12.10
2018-05-03T23:34:43.213Z,12.10
2018-05-03T23:37:11.459Z,12.10
2018-05-03T23:39:38.936Z,12.10
2018-05-03T23:42:06.407Z,12.00
2018-05-03T23:44:34.704Z,11.80
2018-05-03T23:47:02.176Z,11.80
2018-05-03T23:49:29.645Z,11.90
2018-05-03T23:51:57.248Z,11.90
2018-05-03T23:54:24.744Z,12.00
2018-05-03T23:56:52.207Z,11.90
2018-05-03T23:59:19.683Z,11.90
